Time;durP1;ratioP1;P1;durP2;ratioP2;P2;SDS_P1;SDS_P2;PMS_P1;PMS_P2;Temp;Humidity;BMP_temperature;BMP_pressure;BME280_temperature;BME280_humidity;BME280_pressure;Samples;Min_cycle;Max_cycle;Signal;HPM_P1;HPM_P2
2023/01/03 00:00:13;;;;;;;21.25;13.68;;;6.30;99.90;;;;;;5052660;28;20025;-82
2023/01/03 00:02:39;;;;;;;20.05;13.20;;;6.20;99.90;;;;;;5034825;28;20029;-83
2023/01/03 00:05:05;;;;;;;20.05;13.25;;;6.10;99.90;;;;;;5034695;28;20160;-83
2023/01/03 00:07:33;;;;;;;19.73;12.27;;;6.10;99.90;;;;;;5034757;28;20386;-81
2023/01/03 00:10:01;;;;;;;22.17;13.95;;;6.10;99.90;;;;;;5052536;28;20124;-82
2023/01/03 00:12:28;;;;;;;16.30;11.07;;;6.10;99.90;;;;;;5034700;28;20028;-82
2023/01/03 00:14:54;;;;;;;21.90;12.57;;;6.10;99.90;;;;;;5034367;28;20028;-83
2023/01/03 00:17:20;;;;;;;19.02;12.38;;;6.10;99.90;;;;;;5034484;28;20033;-83
2023/01/03 00:19:46;;;;;;;19.42;12.95;;;6.10;99.90;;;;;;5034543;28;20570;-82
2023/01/03 00:22:14;;;;;;;20.05;12.65;;;6.10;99.90;;;;;;5052595;28;20104;-82
2023/01/03 00:24:40;;;;;;;18.90;12.48;;;6.10;99.90;;;;;;5034133;28;20424;-81
2023/01/03 00:27:06;;;;;;;19.73;12.98;;;6.20;99.90;;;;;;5052073;28;20033;-83
2023/01/03 00:29:32;;;;;;;17.67;11.82;;;6.10;99.90;;;;;;5034278;28;20013;-82
2023/01/03 00:31:58;;;;;;;17.45;11.43;;;6.10;99.90;;;;;;5034233;28;20116;-82
2023/01/03 00:34:24;;;;;;;17.88;12.18;;;6.10;99.90;;;;;;5034164;28;20021;-81
2023/01/03 00:36:50;;;;;;;20.08;11.48;;;6.10;99.90;;;;;;5017709;28;20454;-81
2023/01/03 00:39:16;;;;;;;16.67;11.38;;;6.00;99.90;;;;;;5050897;28;20021;-81
2023/01/03 00:41:42;;;;;;;17.30;10.93;;;6.00;99.90;;;;;;5034127;28;20051;-82
2023/01/03 00:44:07;;;;;;;15.05;9.98;;;5.90;99.90;;;;;;5034284;28;20024;-82
2023/01/03 00:46:33;;;;;;;15.57;9.80;;;5.80;99.90;;;;;;5034464;28;20033;-81
2023/01/03 00:49:00;;;;;;;16.13;10.38;;;5.70;99.90;;;;;;5052085;28;20113;-84
2023/01/03 00:51:30;;;;;;;13.52;9.27;;;5.60;99.90;;;;;;5034369;28;20021;-83
2023/01/03 00:53:57;;;;;;;14.45;9.20;;;5.60;99.90;;;;;;5052226;28;20028;-81
2023/01/03 00:56:25;;;;;;;14.45;10.30;;;5.50;99.90;;;;;;5052223;28;20399;-81
2023/01/03 00:58:51;;;;;;;13.77;9.18;;;5.50;99.90;;;;;;5052362;28;20017;-83
2023/01/03 01:01:23;;;;;;;12.85;8.95;;;5.50;99.90;;;;;;5052238;28;20411;-82
2023/01/03 01:03:51;;;;;;;14.65;9.85;;;5.40;99.90;;;;;;5052317;28;20049;-82
2023/01/03 01:06:25;;;;;;;14.35;10.40;;;5.40;99.90;;;;;;5052252;28;20063;-84
2023/01/03 01:08:54;;;;;;;14.05;9.85;;;5.50;99.90;;;;;;5034601;28;20451;-81
2023/01/03 01:11:20;;;;;;;14.52;10.38;;;5.60;99.90;;;;;;5052374;28;20025;-83
2023/01/03 01:13:46;;;;;;;16.02;10.93;;;5.70;99.90;;;;;;5034160;28;20156;-81
2023/01/03 01:16:14;;;;;;;20.48;12.43;;;5.80;99.90;;;;;;5034040;28;20068;-82
2023/01/03 01:18:42;;;;;;;19.17;12.50;;;5.80;99.90;;;;;;5052173;28;20033;-81
2023/01/03 01:21:09;;;;;;;19.50;12.82;;;5.90;99.90;;;;;;5052062;28;20021;-82
2023/01/03 01:23:37;;;;;;;17.42;11.25;;;6.00;99.90;;;;;;5034303;28;20021;-81
2023/01/03 01:26:03;;;;;;;17.40;11.48;;;6.00;99.90;;;;;;5033828;28;20516;-81
2023/01/03 01:28:29;;;;;;;18.50;12.00;;;6.00;99.90;;;;;;5034014;28;20041;-81
2023/01/03 01:30:58;;;;;;;18.60;12.77;;;6.00;99.90;;;;;;5061970;28;20039;-81
2023/01/03 01:33:23;;;;;;;17.88;12.05;;;6.00;99.90;;;;;;5053822;28;20044;-82
2023/01/03 01:35:49;;;;;;;20.13;13.48;;;6.00;99.90;;;;;;5053613;28;20115;-83
2023/01/03 01:38:14;;;;;;;17.13;12.18;;;5.90;99.90;;;;;;5054033;28;20024;-82
2023/01/03 01:40:40;;;;;;;18.52;12.02;;;5.80;99.90;;;;;;5053711;28;20024;-83
2023/01/03 01:46:27;;;;;;;18.98;12.55;;;5.60;99.90;;;;;;5071655;28;20048;-81
2023/01/03 01:49:02;;;;;;;15.75;10.57;;;5.50;99.90;;;;;;5054174;28;20021;-81
2023/01/03 01:51:32;;;;;;;15.25;11.18;;;5.40;99.90;;;;;;5057048;28;20027;-82
2023/01/03 01:53:59;;;;;;;16.77;11.57;;;5.30;99.90;;;;;;5057166;28;20033;-82
2023/01/03 01:56:30;;;;;;;16.25;11.57;;;5.30;99.90;;;;;;5075325;28;20025;-80
2023/01/03 01:58:56;;;;;;;16.05;11.73;;;5.20;99.90;;;;;;5057329;28;20111;-80
2023/01/03 02:01:23;;;;;;;15.68;11.40;;;5.20;99.90;;;;;;5056964;28;20120;-82
2023/01/03 02:04:00;;;;;;;18.13;11.73;;;5.20;99.90;;;;;;5075219;28;20024;-82
2023/01/03 02:06:26;;;;;;;14.80;10.80;;;5.10;99.90;;;;;;5057175;28;20386;-81
2023/01/03 02:08:51;;;;;;;14.65;10.38;;;5.10;99.90;;;;;;5075232;28;20012;-80
2023/01/03 02:11:24;;;;;;;15.23;11.10;;;5.00;99.90;;;;;;5057073;28;20024;-82
2023/01/03 02:14:59;;;;;;;17.65;10.82;;;4.90;99.90;;;;;;5074989;28;20486;-82
2023/01/03 02:17:37;;;;;;;16.65;11.90;;;4.90;99.90;;;;;;4957506;28;20505;-82
2023/01/03 02:20:53;;;;;;;15.05;11.05;;;4.80;99.90;;;;;;5062506;28;20059;-83
2023/01/03 02:23:37;;;;;;;16.50;12.00;;;4.90;99.90;;;;;;5014839;28;20037;-82
2023/01/03 02:26:42;;;;;;;19.17;12.00;;;5.10;99.90;;;;;;5056562;28;20029;-82
2023/01/03 02:29:10;;;;;;;18.98;11.95;;;5.20;99.90;;;;;;5036004;28;20048;-83
2023/01/03 02:32:02;;;;;;;22.90;16.10;;;5.30;99.90;;;;;;5056630;28;20482;-82
2023/01/03 02:34:46;;;;;;;22.50;15.25;;;5.30;99.90;;;;;;5056280;28;20035;-82
2023/01/03 02:37:36;;;;;;;26.88;17.33;;;5.40;99.90;;;;;;5056350;28;20123;-82
2023/01/03 02:40:28;;;;;;;26.08;18.08;;;5.50;99.90;;;;;;5056558;28;20025;-83
2023/01/03 02:43:02;;;;;;;25.60;17.42;;;5.50;99.90;;;;;;5074478;28;20070;-83
2023/01/03 02:45:54;;;;;;;24.17;16.55;;;5.60;99.90;;;;;;5056710;28;20033;-83
2023/01/03 02:48:43;;;;;;;23.95;16.98;;;5.50;99.90;;;;;;5056270;28;20032;-80
2023/01/03 02:51:24;;;;;;;26.17;16.83;;;5.50;99.90;;;;;;5061019;28;20483;-81
2023/01/03 02:53:50;;;;;;;26.40;18.10;;;5.50;99.90;;;;;;5055088;28;20389;-82
2023/01/03 02:56:31;;;;;;;27.42;18.42;;;5.40;99.90;;;;;;5074072;28;20020;-82
2023/01/03 02:59:01;;;;;;;25.55;17.15;;;5.40;99.90;;;;;;5055907;28;20484;-82
2023/01/03 03:01:29;;;;;;;25.33;18.30;;;5.50;99.90;;;;;;5054882;28;20431;-81
2023/01/03 03:03:56;;;;;;;27.77;18.88;;;5.50;99.90;;;;;;5073799;28;20466;-83
2023/01/03 03:06:37;;;;;;;28.02;19.58;;;5.40;99.90;;;;;;5056170;28;20028;-82
2023/01/03 03:09:03;;;;;;;31.60;20.20;;;5.40;99.90;;;;;;5056096;28;20025;-81
2023/01/03 03:14:31;;;;;;;28.38;19.02;;;5.50;99.90;;;;;;5074341;28;20520;-81
2023/01/03 03:17:03;;;;;;;26.17;18.42;;;5.50;99.90;;;;;;5056006;28;20040;-82
2023/01/03 03:25:13;;;;;;;23.75;16.80;;;5.30;99.90;;;;;;5073751;28;20115;-81
2023/01/03 03:30:31;;;;;;;25.23;16.85;;;5.20;99.90;;;;;;5073704;28;20039;-82
2023/01/03 03:33:04;;;;;;;22.55;16.55;;;5.10;99.90;;;;;;5055569;28;20404;-82
2023/01/03 03:35:36;;;;;;;22.25;16.15;;;5.10;99.90;;;;;;5073446;28;20049;-83
2023/01/03 03:38:06;;;;;;;22.65;15.38;;;5.00;99.90;;;;;;5073708;28;20029;-82
2023/01/03 03:46:21;;;;;;;21.33;14.43;;;4.80;99.90;;;;;;5074297;28;20071;-83
2023/01/03 03:51:56;;;;;;;20.80;13.63;;;4.70;99.90;;;;;;5073680;28;20099;-83
2023/01/03 03:54:24;;;;;;;20.38;13.95;;;4.60;99.90;;;;;;5055360;28;20025;-82
2023/01/03 03:56:58;;;;;;;20.67;14.90;;;4.60;99.90;;;;;;5055314;28;20424;-82
2023/01/03 03:59:27;;;;;;;22.17;15.75;;;4.60;99.90;;;;;;5055507;28;20116;-83
2023/01/03 04:01:54;;;;;;;24.42;16.38;;;4.60;99.90;;;;;;5055111;28;20475;-84
2023/01/03 04:04:27;;;;;;;21.85;16.27;;;4.50;99.90;;;;;;5055620;28;20029;-83
2023/01/03 04:06:53;;;;;;;23.20;16.90;;;4.50;99.90;;;;;;5055541;28;20032;-82
2023/01/03 04:09:19;;;;;;;19.15;14.57;;;4.50;99.90;;;;;;5073111;28;20049;-82
2023/01/03 04:11:45;;;;;;;21.83;15.32;;;4.50;99.90;;;;;;5073612;28;20067;-82
2023/01/03 04:14:10;;;;;;;19.95;15.73;;;4.40;99.90;;;;;;5053690;28;20470;-83
2023/01/03 04:16:36;;;;;;;21.15;15.63;;;4.40;99.90;;;;;;5053748;28;20045;-82
2023/01/03 04:19:03;;;;;;;22.50;15.95;;;4.40;99.90;;;;;;5053293;28;20029;-82
2023/01/03 04:21:28;;;;;;;25.92;18.13;;;4.40;99.90;;;;;;5053107;28;20067;-84
2023/01/03 04:23:54;;;;;;;23.13;16.63;;;4.40;99.90;;;;;;5053058;28;20052;-81
2023/01/03 04:26:19;;;;;;;27.48;18.70;;;4.40;99.90;;;;;;5052943;28;20033;-82
2023/01/03 04:28:45;;;;;;;25.88;18.40;;;4.40;99.90;;;;;;5035475;28;20028;-82
2023/01/03 04:31:10;;;;;;;23.48;17.48;;;4.40;99.90;;;;;;5035109;28;20029;-81
2023/01/03 04:33:36;;;;;;;20.73;16.67;;;4.40;99.90;;;;;;5052999;28;20027;-83
2023/01/03 04:36:02;;;;;;;23.77;16.88;;;4.30;99.90;;;;;;5052754;28;20119;-81
2023/01/03 04:38:28;;;;;;;24.98;17.40;;;4.30;99.90;;;;;;5034865;28;20526;-82
2023/01/03 04:40:53;;;;;;;24.17;17.23;;;4.30;99.90;;;;;;5052896;28;20049;-81
2023/01/03 04:46:03;;;;;;;20.23;14.80;;;4.30;99.90;;;;;;5052943;28;20056;-83
2023/01/03 04:48:28;;;;;;;17.88;13.50;;;4.20;99.90;;;;;;5034736;28;20464;-83
2023/01/03 04:50:56;;;;;;;18.45;13.82;;;4.20;99.90;;;;;;5034542;28;20127;-82
2023/01/03 04:53:23;;;;;;;18.27;12.65;;;4.20;99.90;;;;;;5033390;28;20108;-82
2023/01/03 04:55:50;;;;;;;18.95;13.15;;;4.10;99.90;;;;;;5052437;28;20425;-81
2023/01/03 04:58:17;;;;;;;17.27;12.95;;;4.10;99.90;;;;;;5034389;28;20467;-82
2023/01/03 05:00:43;;;;;;;16.55;12.18;;;4.10;99.90;;;;;;5034619;28;20419;-82
2023/01/03 05:03:08;;;;;;;17.13;12.20;;;4.00;99.90;;;;;;5035117;28;20075;-82
2023/01/03 05:05:36;;;;;;;17.30;11.63;;;4.00;99.90;;;;;;5034800;28;20017;-81
2023/01/03 05:08:06;;;;;;;14.13;10.93;;;4.00;99.90;;;;;;5034516;28;20081;-81
2023/01/03 05:10:32;;;;;;;16.17;11.27;;;4.00;99.90;;;;;;5034568;28;20021;-81
2023/01/03 05:12:59;;;;;;;13.60;10.00;;;3.90;99.90;;;;;;5052235;28;20028;-82
2023/01/03 05:15:30;;;;;;;17.05;11.18;;;3.90;99.90;;;;;;5034608;28;20025;-82
2023/01/03 05:17:56;;;;;;;14.50;11.05;;;3.80;99.90;;;;;;5052467;28;20037;-83
2023/01/03 05:25:55;;;;;;;15.75;11.02;;;3.80;99.90;;;;;;5054914;28;20039;-80
2023/01/03 05:28:22;;;;;;;15.05;10.60;;;3.70;99.90;;;;;;5055887;28;20021;-81
2023/01/03 05:30:48;;;;;;;15.98;11.15;;;3.70;99.90;;;;;;5056078;28;20094;-81
2023/01/03 05:33:14;;;;;;;15.23;11.20;;;3.70;99.90;;;;;;5056435;28;20025;-82
2023/01/03 05:35:39;;;;;;;16.77;11.18;;;3.70;99.90;;;;;;5056096;28;20049;-81
2023/01/03 05:38:05;;;;;;;15.90;12.48;;;3.70;99.90;;;;;;5037911;28;20044;-84
2023/01/03 05:40:30;;;;;;;15.75;11.82;;;3.70;99.90;;;;;;5053329;28;20037;-82
2023/01/03 05:42:56;;;;;;;18.50;12.73;;;3.70;99.90;;;;;;5035601;28;20116;-83
2023/01/03 05:45:24;;;;;;;16.73;11.43;;;3.70;99.90;;;;;;5053609;28;20029;-81
2023/01/03 05:47:51;;;;;;;20.70;12.65;;;3.70;99.90;;;;;;5035179;28;20121;-82
2023/01/03 05:50:17;;;;;;;20.90;12.23;;;3.70;99.90;;;;;;5053066;28;20032;-81
2023/01/03 05:52:42;;;;;;;17.45;12.65;;;3.70;99.90;;;;;;5034995;28;20032;-81
2023/01/03 05:55:08;;;;;;;17.05;11.02;;;3.70;99.90;;;;;;5053283;28;20028;-82
2023/01/03 05:57:34;;;;;;;14.80;11.15;;;3.60;99.90;;;;;;5053256;28;20041;-82
2023/01/03 05:59:59;;;;;;;17.80;11.68;;;3.60;99.90;;;;;;5034798;28;20025;-82
2023/01/03 06:02:26;;;;;;;19.48;12.10;;;3.60;99.90;;;;;;5035130;28;20506;-83
2023/01/03 06:04:52;;;;;;;18.02;12.20;;;3.60;99.90;;;;;;5034517;28;20021;-83
2023/01/03 06:07:17;;;;;;;19.25;13.68;;;3.60;99.90;;;;;;5035453;28;20052;-83
2023/01/03 06:09:43;;;;;;;24.15;15.43;;;3.60;99.90;;;;;;5034757;28;20501;-83
2023/01/03 06:12:08;;;;;;;19.63;13.48;;;3.70;99.90;;;;;;5052685;28;20063;-82
2023/01/03 06:14:34;;;;;;;21.10;14.68;;;3.60;99.90;;;;;;5052501;28;20082;-83
2023/01/03 06:19:43;;;;;;;21.48;14.60;;;3.70;99.90;;;;;;5049960;28;20036;-83
2023/01/03 06:22:09;;;;;;;19.45;14.75;;;3.70;99.90;;;;;;5052046;28;20050;-82
2023/01/03 06:24:35;;;;;;;21.88;14.85;;;3.80;99.90;;;;;;5047741;28;20057;-82
2023/01/03 06:27:00;;;;;;;20.50;14.43;;;3.80;99.90;;;;;;5034378;28;20032;-83
2023/01/03 06:29:26;;;;;;;18.95;13.82;;;3.90;99.90;;;;;;5033570;28;20137;-84
2023/01/03 06:31:51;;;;;;;21.40;13.15;;;4.00;99.90;;;;;;5032904;28;20036;-82
2023/01/03 06:34:17;;;;;;;19.83;13.88;;;4.00;99.90;;;;;;5031732;28;20774;-83
2023/01/03 06:36:43;;;;;;;17.65;12.88;;;4.10;99.90;;;;;;5031564;28;20162;-84
2023/01/03 06:39:08;;;;;;;19.42;13.30;;;4.10;99.90;;;;;;5051428;28;20033;-83
2023/01/03 06:41:34;;;;;;;17.38;11.45;;;4.20;99.90;;;;;;5051590;28;20043;-83
2023/01/03 06:43:59;;;;;;;16.40;11.10;;;4.20;99.90;;;;;;5053600;28;20029;-83
2023/01/03 06:54:43;;;;;;;14.75;10.10;;;4.20;99.90;;;;;;5052825;28;20547;-81
2023/01/03 06:57:08;;;;;;;14.32;9.32;;;4.20;99.90;;;;;;5035494;28;20108;-82
2023/01/03 06:59:34;;;;;;;13.48;10.02;;;4.20;99.90;;;;;;5036721;28;20070;-82
2023/01/03 07:02:00;;;;;;;12.95;9.10;;;4.20;99.90;;;;;;5054098;28;20387;-82
2023/01/03 07:04:26;;;;;;;12.88;8.73;;;4.10;99.90;;;;;;5036084;28;20017;-82
2023/01/03 07:06:52;;;;;;;12.88;8.55;;;4.10;99.90;;;;;;5053651;28;20032;-82
2023/01/03 07:09:17;;;;;;;14.88;9.05;;;4.10;99.90;;;;;;5054345;28;20025;-82
2023/01/03 07:11:44;;;;;;;14.70;9.02;;;4.10;99.90;;;;;;5036122;28;20114;-84
2023/01/03 07:14:11;;;;;;;13.18;8.98;;;4.10;99.90;;;;;;5053734;28;20501;-82
2023/01/03 07:16:37;;;;;;;13.43;9.00;;;4.20;99.90;;;;;;5035817;28;20045;-80
2023/01/03 07:19:05;;;;;;;14.73;8.85;;;4.20;99.90;;;;;;5053943;28;20049;-83
2023/01/03 07:21:32;;;;;;;14.27;8.95;;;4.20;99.90;;;;;;5035907;28;20017;-83
2023/01/03 07:24:00;;;;;;;11.85;8.85;;;4.10;99.90;;;;;;5035720;28;20033;-83
2023/01/03 07:26:27;;;;;;;15.35;8.82;;;4.10;99.90;;;;;;5052941;28;20013;-82
2023/01/03 07:28:53;;;;;;;14.45;9.23;;;4.00;99.90;;;;;;5033959;28;20574;-80
2023/01/03 07:31:19;;;;;;;11.93;8.10;;;4.00;99.90;;;;;;5034580;28;20112;-82
2023/01/03 07:33:45;;;;;;;13.38;8.80;;;4.00;99.90;;;;;;5018429;28;20029;-82
2023/01/03 07:36:12;;;;;;;13.38;9.48;;;4.10;99.90;;;;;;5052594;28;20398;-82
2023/01/03 07:38:41;;;;;;;13.73;9.60;;;4.10;99.90;;;;;;5053070;28;20025;-84
2023/01/03 07:41:07;;;;;;;17.83;9.52;;;4.20;99.90;;;;;;5034668;28;20036;-83
2023/01/03 07:43:37;;;;;;;14.80;9.82;;;4.30;99.90;;;;;;5053057;28;20479;-83
2023/01/03 07:46:19;;;;;;;14.18;9.00;;;4.30;99.90;;;;;;5053177;28;20029;-81
2023/01/03 07:48:49;;;;;;;14.63;10.20;;;4.40;99.90;;;;;;5052854;28;20044;-81
2023/01/03 07:51:16;;;;;;;15.05;8.95;;;4.40;99.90;;;;;;5053200;28;20052;-81
2023/01/03 07:53:42;;;;;;;17.73;10.02;;;4.50;99.90;;;;;;5053028;28;20017;-80
2023/01/03 07:56:13;;;;;;;12.98;9.52;;;4.50;99.90;;;;;;5035324;28;20396;-80
2023/01/03 07:58:41;;;;;;;17.75;10.43;;;4.50;99.90;;;;;;5034771;28;20100;-81
2023/01/03 08:01:08;;;;;;;14.63;10.10;;;4.60;99.90;;;;;;5052599;28;20029;-81
2023/01/03 08:03:35;;;;;;;16.10;10.07;;;4.60;99.90;;;;;;5052748;28;20021;-81
2023/01/03 08:06:07;;;;;;;15.13;10.30;;;4.70;99.90;;;;;;5052806;28;20387;-81
2023/01/03 08:08:32;;;;;;;14.02;9.43;;;4.70;99.90;;;;;;5052807;28;20089;-82
2023/01/03 08:13:44;;;;;;;16.13;9.73;;;4.80;99.90;;;;;;5052702;28;20036;-83
2023/01/03 08:16:12;;;;;;;18.52;10.38;;;4.80;99.90;;;;;;5052768;28;20024;-82
2023/01/03 08:18:39;;;;;;;16.33;10.30;;;4.90;99.90;;;;;;5052059;28;20127;-83
2023/01/03 08:21:07;;;;;;;16.30;10.32;;;4.90;99.90;;;;;;5018153;28;20033;-82
2023/01/03 08:23:33;;;;;;;18.58;10.60;;;4.90;99.90;;;;;;5052447;28;20027;-82
2023/01/03 08:26:13;;;;;;;16.83;10.30;;;4.80;99.90;;;;;;5034366;28;20028;-82
2023/01/03 08:28:41;;;;;;;17.77;9.82;;;4.80;99.90;;;;;;5034279;28;20417;-82
2023/01/03 08:31:19;;;;;;;16.42;10.20;;;4.90;99.90;;;;;;5052120;28;20013;-83
2023/01/03 08:33:59;;;;;;;15.35;9.73;;;4.90;99.90;;;;;;5034436;28;20063;-83
2023/01/03 08:36:27;;;;;;;14.88;9.32;;;5.00;99.90;;;;;;5018479;28;20045;-82
2023/01/03 08:38:58;;;;;;;15.02;9.02;;;5.00;99.90;;;;;;5034161;28;20024;-82
2023/01/03 08:41:28;;;;;;;15.73;10.02;;;5.10;99.90;;;;;;5034230;28;20025;-82
2023/01/03 08:43:55;;;;;;;16.60;10.65;;;5.10;99.90;;;;;;5034361;28;20031;-83
2023/01/03 08:46:21;;;;;;;16.33;10.63;;;5.10;99.90;;;;;;5033827;28;20040;-81
2023/01/03 08:48:47;;;;;;;15.70;11.30;;;5.20;99.90;;;;;;5033665;28;20539;-83
2023/01/03 08:51:13;;;;;;;20.42;12.55;;;5.20;99.90;;;;;;5052284;28;20100;-82
2023/01/03 08:53:39;;;;;;;23.50;13.02;;;5.20;99.90;;;;;;5034491;28;20056;-82
2023/01/03 08:56:05;;;;;;;25.73;16.48;;;5.30;99.90;;;;;;5051691;28;20021;-81
2023/01/03 08:58:30;;;;;;;20.67;14.57;;;5.40;99.90;;;;;;5033783;28;20013;-81
2023/01/03 09:01:01;;;;;;;21.50;13.25;;;5.40;99.90;;;;;;5032765;28;20037;-83
2023/01/03 09:03:26;;;;;;;20.13;13.85;;;5.50;99.90;;;;;;5033723;28;20493;-82
2023/01/03 09:05:52;;;;;;;19.95;12.80;;;5.60;99.90;;;;;;5033230;28;20021;-82
2023/01/03 09:08:17;;;;;;;20.98;12.77;;;5.60;99.90;;;;;;5016766;28;20119;-82
2023/01/03 09:10:45;;;;;;;20.20;12.32;;;5.70;99.90;;;;;;5033475;28;20064;-82
2023/01/03 09:13:11;;;;;;;19.27;12.23;;;5.80;99.90;;;;;;5033449;28;20021;-82
2023/01/03 09:15:37;;;;;;;18.13;13.10;;;5.80;99.90;;;;;;5051547;28;20436;-82
2023/01/03 09:18:02;;;;;;;17.45;11.40;;;5.80;99.90;;;;;;5050911;28;20037;-82
2023/01/03 09:20:28;;;;;;;16.75;11.07;;;5.90;99.90;;;;;;5050178;28;20024;-82
2023/01/03 09:22:53;;;;;;;20.67;12.90;;;5.90;99.90;;;;;;5050854;28;20021;-81
2023/01/03 09:25:19;;;;;;;19.50;11.93;;;6.00;99.90;;;;;;5033114;28;20390;-82
2023/01/03 09:27:46;;;;;;;22.02;13.15;;;6.00;99.90;;;;;;5050876;28;20091;-83
2023/01/03 09:30:13;;;;;;;24.30;13.15;;;6.10;99.90;;;;;;5033165;28;20364;-84
2023/01/03 09:32:38;;;;;;;29.95;15.70;;;6.20;99.90;;;;;;5032855;28;20451;-82
2023/01/03 09:35:05;;;;;;;22.60;14.32;;;6.20;99.90;;;;;;5051041;28;20041;-79
2023/01/03 09:37:30;;;;;;;25.63;14.40;;;6.20;99.90;;;;;;5032466;28;20132;-82
2023/01/03 09:39:57;;;;;;;24.88;14.73;;;6.30;99.90;;;;;;5051049;28;20096;-81
2023/01/03 09:45:15;;;;;;;24.85;14.57;;;6.30;99.90;;;;;;5051362;28;20128;-81
2023/01/03 09:47:41;;;;;;;28.55;16.10;;;6.30;99.90;;;;;;5032250;28;20025;-82
2023/01/03 09:50:16;;;;;;;23.98;14.85;;;6.30;99.90;;;;;;5032839;28;20059;-81
2023/01/03 10:04:42;;;;;;;23.00;13.85;;;6.40;99.90;;;;;;5051068;28;20120;-81
2023/01/03 10:07:27;;;;;;;25.05;13.77;;;6.50;99.90;;;;;;5050951;28;20036;-82
2023/01/03 10:10:06;;;;;;;22.88;14.45;;;6.50;99.90;;;;;;5050864;28;20029;-80
2023/01/03 10:12:44;;;;;;;28.45;16.55;;;6.50;99.90;;;;;;5020389;28;20021;-82
2023/01/03 10:15:24;;;;;;;29.40;16.23;;;6.60;99.90;;;;;;5036696;28;20045;-81
2023/01/03 10:18:34;;;;;;;32.22;18.08;;;6.70;99.90;;;;;;5035966;28;20497;-82
2023/01/03 10:21:15;;;;;;;36.67;19.60;;;6.70;99.90;;;;;;4965768;28;20096;-82
2023/01/03 10:23:41;;;;;;;31.73;17.98;;;6.70;99.90;;;;;;5040046;28;20033;-81
2023/01/03 10:26:11;;;;;;;31.55;17.48;;;6.70;99.90;;;;;;5037676;28;20021;-83
2023/01/03 10:28:40;;;;;;;27.90;16.35;;;6.80;99.90;;;;;;5036295;28;20055;-82
2023/01/03 10:31:24;;;;;;;31.80;19.42;;;6.80;99.90;;;;;;5035979;28;20017;-82
2023/01/03 10:33:50;;;;;;;29.58;15.50;;;6.80;99.90;;;;;;5053776;28;20392;-82
2023/01/03 10:36:18;;;;;;;21.30;14.25;;;6.90;99.90;;;;;;5052758;28;20040;-80
2023/01/03 10:38:44;;;;;;;25.80;15.82;;;6.90;99.90;;;;;;5053953;28;20025;-82
2023/01/03 10:41:29;;;;;;;29.30;14.95;;;7.00;99.90;;;;;;5035579;28;20041;-81
2023/01/03 10:43:57;;;;;;;23.75;14.50;;;7.00;99.90;;;;;;5053561;28;20029;-82
2023/01/03 10:46:24;;;;;;;22.55;14.18;;;7.00;99.90;;;;;;5036140;28;20021;-83
2023/01/03 10:48:52;;;;;;;22.02;14.20;;;7.00;99.90;;;;;;5035607;28;20112;-82
2023/01/03 10:51:31;;;;;;;22.38;13.18;;;7.10;99.90;;;;;;5053643;28;20036;-81
2023/01/03 10:53:59;;;;;;;21.10;12.88;;;7.10;99.90;;;;;;5035592;28;20021;-82
2023/01/03 10:56:26;;;;;;;23.30;12.63;;;7.10;99.90;;;;;;5035660;28;20475;-83
2023/01/03 10:59:21;;;;;;;21.83;13.40;;;7.20;99.90;;;;;;5035904;28;20025;-81
2023/01/03 11:02:00;;;;;;;25.73;14.45;;;7.20;99.90;;;;;;5053896;28;20043;-82
2023/01/03 11:04:28;;;;;;;27.15;15.82;;;7.20;99.90;;;;;;5034749;28;20021;-82
2023/01/03 11:07:10;;;;;;;28.52;17.15;;;7.20;99.90;;;;;;5035667;28;20378;-82
2023/01/03 11:09:56;;;;;;;25.38;15.13;;;7.30;99.90;;;;;;5053654;28;20048;-82
2023/01/03 11:12:37;;;;;;;24.27;14.07;;;7.30;99.90;;;;;;5019773;28;20021;-84
2023/01/03 11:15:13;;;;;;;22.65;14.32;;;7.40;99.90;;;;;;5053648;28;20075;-83
2023/01/03 11:17:58;;;;;;;21.92;12.55;;;7.40;99.90;;;;;;5035005;28;20044;-82
2023/01/03 11:20:57;;;;;;;21.65;13.73;;;7.40;99.90;;;;;;5037804;28;20021;-84
2023/01/03 11:23:41;;;;;;;20.25;12.73;;;7.40;99.90;;;;;;5036517;28;20028;-83
2023/01/03 11:26:38;;;;;;;18.10;10.98;;;7.50;99.90;;;;;;5038978;28;20025;-84
2023/01/03 11:29:14;;;;;;;16.58;10.13;;;7.50;99.90;;;;;;5035359;28;20479;-83
2023/01/03 11:31:50;;;;;;;17.60;11.05;;;7.50;99.90;;;;;;5034990;28;20025;-85
2023/01/03 11:34:29;;;;;;;20.02;10.70;;;7.50;99.90;;;;;;5033096;28;20078;-84
2023/01/03 11:37:10;;;;;;;15.10;9.70;;;7.50;99.90;;;;;;5033032;28;20570;-84
2023/01/03 11:39:50;;;;;;;25.35;15.98;;;7.50;99.90;;;;;;5031732;28;20410;-83
2023/01/03 11:42:52;;;;;;;28.67;18.63;;;7.60;99.90;;;;;;5049962;28;20108;-82
2023/01/03 11:45:40;;;;;;;24.65;16.50;;;7.60;99.90;;;;;;4965184;28;20041;-83
2023/01/03 11:48:17;;;;;;;24.23;14.77;;;7.60;99.90;;;;;;5049354;28;20048;-83
2023/01/03 11:51:00;;;;;;;21.25;13.25;;;7.60;99.90;;;;;;5050307;28;20025;-85
2023/01/03 11:53:49;;;;;;;17.83;10.88;;;7.60;99.90;;;;;;5035445;28;20108;-84
2023/01/03 11:56:40;;;;;;;15.75;11.07;;;7.60;99.90;;;;;;5031804;28;20072;-84
2023/01/03 11:59:11;;;;;;;19.58;12.23;;;7.60;99.90;;;;;;5050299;28;20036;-82
2023/01/03 12:01:54;;;;;;;18.90;11.95;;;7.60;99.90;;;;;;5050163;28;20021;-84
2023/01/03 12:04:45;;;;;;;17.58;11.15;;;7.60;99.90;;;;;;5029033;28;20067;-83
2023/01/03 12:07:18;;;;;;;16.27;10.20;;;7.60;99.90;;;;;;5037818;28;20024;-84
2023/01/03 12:10:14;;;;;;;17.98;10.90;;;7.60;99.90;;;;;;5036637;28;20021;-82
2023/01/03 12:12:50;;;;;;;18.98;11.10;;;7.70;99.90;;;;;;5031056;28;20029;-84
2023/01/03 12:15:38;;;;;;;16.33;10.05;;;7.70;99.90;;;;;;5050360;28;20124;-82
2023/01/03 12:18:15;;;;;;;15.90;10.00;;;7.70;99.90;;;;;;5032833;28;20102;-83
2023/01/03 12:20:47;;;;;;;14.60;9.27;;;7.70;99.90;;;;;;5052312;28;20021;-82
2023/01/03 12:23:43;;;;;;;14.85;9.80;;;7.70;99.90;;;;;;5034465;28;20108;-82
2023/01/03 12:26:13;;;;;;;14.23;9.25;;;7.80;99.90;;;;;;5029878;28;20029;-83
2023/01/03 12:28:47;;;;;;;15.60;9.63;;;7.80;99.90;;;;;;5034133;28;20074;-83
2023/01/03 12:31:36;;;;;;;13.77;9.15;;;7.80;99.90;;;;;;5033952;28;20120;-83
2023/01/03 12:34:12;;;;;;;14.52;8.48;;;7.80;99.90;;;;;;5051354;28;20033;-82
2023/01/03 12:37:02;;;;;;;13.80;8.35;;;7.90;99.90;;;;;;5043363;28;20414;-83
2023/01/03 12:39:55;;;;;;;16.70;8.63;;;7.90;99.90;;;;;;5036534;28;20020;-83
2023/01/03 12:42:52;;;;;;;15.73;8.65;;;7.90;99.90;;;;;;5034160;28;20071;-82
2023/01/03 12:45:37;;;;;;;11.70;7.80;;;7.90;99.90;;;;;;4990289;28;20082;-82
2023/01/03 12:48:26;;;;;;;12.93;8.65;;;8.00;99.90;;;;;;5050490;28;20040;-82
2023/01/03 12:50:53;;;;;;;12.38;8.25;;;8.00;99.90;;;;;;5034894;28;20394;-82
2023/01/03 12:53:42;;;;;;;14.48;9.13;;;8.00;99.90;;;;;;5033832;28;20021;-82
2023/01/03 12:56:20;;;;;;;14.35;9.15;;;8.00;99.90;;;;;;5033594;28;20021;-83
2023/01/03 12:59:02;;;;;;;15.05;10.65;;;8.00;99.90;;;;;;5033606;28;20128;-83
2023/01/03 13:01:39;;;;;;;16.10;9.38;;;8.10;99.90;;;;;;5018565;28;20497;-84
2023/01/03 13:04:28;;;;;;;15.55;9.57;;;8.10;99.90;;;;;;5051264;28;20473;-82
2023/01/03 13:07:17;;;;;;;13.13;7.72;;;8.10;99.90;;;;;;5051510;28;20110;-83
2023/01/03 13:09:50;;;;;;;11.95;8.13;;;8.10;99.90;;;;;;5051259;28;20060;-83
2023/01/03 13:12:19;;;;;;;14.00;8.67;;;8.20;99.90;;;;;;5033634;28;20036;-82
2023/01/03 13:15:02;;;;;;;14.60;9.68;;;8.20;99.90;;;;;;5026609;28;20025;-82
2023/01/03 13:17:30;;;;;;;13.65;8.70;;;8.20;99.90;;;;;;5030091;28;20033;-81
2023/01/03 13:20:18;;;;;;;11.50;8.40;;;8.20;99.90;;;;;;5053629;28;20865;-83
2023/01/03 13:22:54;;;;;;;15.63;10.05;;;8.30;99.90;;;;;;5035423;28;20025;-82
2023/01/03 13:25:30;;;;;;;15.20;9.50;;;8.30;99.90;;;;;;5050365;28;20045;-83
2023/01/03 13:27:59;;;;;;;13.93;8.98;;;8.30;99.90;;;;;;5051130;28;20025;-83
2023/01/03 13:30:31;;;;;;;16.98;10.13;;;8.30;99.90;;;;;;5032998;28;20053;-82
2023/01/03 13:33:17;;;;;;;13.07;9.02;;;8.30;99.90;;;;;;5041151;28;20017;-82
2023/01/03 13:35:45;;;;;;;13.00;8.80;;;8.30;99.90;;;;;;5046108;28;20044;-82
2023/01/03 13:38:20;;;;;;;14.15;8.20;;;8.20;99.90;;;;;;5032689;28;20071;-83
2023/01/03 13:40:48;;;;;;;14.55;9.00;;;8.20;99.90;;;;;;5032069;28;20498;-84
2023/01/03 13:43:28;;;;;;;9.80;6.60;;;8.20;99.90;;;;;;5050783;28;20407;-84
2023/01/03 13:45:56;;;;;;;12.40;6.78;;;8.20;99.90;;;;;;5021913;28;20025;-82
2023/01/03 13:48:31;;;;;;;11.30;6.75;;;8.30;99.90;;;;;;5036275;28;20088;-83
2023/01/03 13:51:05;;;;;;;9.70;6.30;;;8.30;99.90;;;;;;5033473;28;20017;-83
2023/01/03 13:53:54;;;;;;;12.18;6.00;;;8.30;99.90;;;;;;5039405;28;20057;-82
2023/01/03 13:56:41;;;;;;;8.27;5.47;;;8.30;99.90;;;;;;5054006;28;20032;-82
2023/01/03 13:59:35;;;;;;;8.13;5.85;;;8.40;99.90;;;;;;5036376;28;20052;-82
2023/01/03 14:02:27;;;;;;;;;;;8.40;99.90;;;;;;5054612;28;20017;-82
2023/01/03 14:05:04;;;;;;;11.73;6.18;;;8.40;99.90;;;;;;5035544;28;19912;-82